createdAt,value
2022-11-23T00:01:38.777Z,547.92157
2022-11-23T00:06:40.525Z,599.31915
2022-11-23T00:11:42.398Z,560
2022-11-23T00:16:44.165Z,585.66667
2022-11-23T00:21:46.039Z,686.16867
2022-11-23T00:26:47.885Z,628.44444
2022-11-23T00:31:49.728Z,380.87943
2022-11-23T00:36:51.720Z,329
2022-11-23T00:41:53.438Z,514.37037
2022-11-23T00:46:55.166Z,733.74359
2022-11-23T00:51:57.301Z,606.36559
2022-11-23T00:56:59.123Z,628.44444
2022-11-23T01:02:01.040Z,652.04598
2022-11-23T01:07:02.976Z,572.57143
2022-11-23T01:12:04.665Z,436.8
2022-11-23T01:17:06.476Z,470.49573
2022-11-23T01:22:08.225Z,484.35088
2022-11-23T01:27:09.925Z,387.16547
2022-11-23T01:32:11.595Z,219
2022-11-23T01:37:13.409Z,192.3871
2022-11-23T01:42:17.727Z,168
2022-11-23T01:47:20.107Z,156.41379
2022-11-23T01:52:21.888Z,179.1145
2022-11-23T01:57:23.550Z,346.61438
2022-11-23T02:02:25.341Z,326.6087
2022-11-23T02:07:27.219Z,319.60976
2022-11-23T02:12:28.993Z,256.69036
2022-11-23T02:17:30.743Z,363.04762
2022-11-23T02:22:33.148Z,714
2022-11-23T02:27:34.908Z,553.90099
2022-11-23T02:32:36.664Z,519.70093
2022-11-23T02:37:38.532Z,396.94118
2022-11-23T02:42:40.460Z,410.66667
2022-11-23T02:47:42.208Z,421.51938
2022-11-23T02:52:44.327Z,417.84615
2022-11-23T02:57:46.190Z,326.6087
2022-11-23T03:02:47.946Z,396.94118
2022-11-23T03:07:49.805Z,396.94118
2022-11-23T03:12:51.828Z,357.42282
2022-11-23T03:17:53.611Z,363.04762
2022-11-23T03:22:55.504Z,354.66667
2022-11-23T03:27:57.325Z,329
2022-11-23T03:32:59.039Z,243.02913
2022-11-23T03:38:00.911Z,155.68385
2022-11-23T03:43:02.701Z,127.8806
2022-11-23T03:48:04.480Z,110.93767
2022-11-23T03:53:06.376Z,110.03774
2022-11-23T03:58:08.234Z,117.03371
2022-11-23T04:03:12.480Z,114.16575
2022-11-23T04:08:14.460Z,116.06704
2022-11-23T04:13:16.290Z,114.16575
2022-11-23T04:18:18.299Z,103.58549
2022-11-23T04:23:20.153Z,103.17313
2022-11-23T04:28:22.211Z,99.55556
2022-11-23T04:33:24.136Z,99.94937
2022-11-23T04:38:26.424Z,98.38596
2022-11-23T04:43:28.195Z,95.72414
2022-11-23T04:48:29.937Z,99.94937
2022-11-23T04:53:31.841Z,122.55072
2022-11-23T04:58:34.748Z,207.24786
2022-11-23T05:03:36.601Z,261.52577
2022-11-23T05:08:38.485Z,234.56604
2022-11-23T05:13:40.464Z,166.38267
2022-11-23T05:18:42.135Z,182.75969
2022-11-23T05:23:44.157Z,229.18519
2022-11-23T05:28:45.895Z,220.23318
2022-11-23T05:33:47.653Z,196.45902
2022-11-23T05:38:49.859Z,200.66667
2022-11-23T05:43:54.464Z,156.41379
2022-11-23T05:48:56.276Z,121.01149
2022-11-23T05:53:58.468Z,110.03774
2022-11-23T05:59:00.336Z,131.80488
2022-11-23T06:04:02.331Z,157.88889
2022-11-23T06:09:04.152Z,170.47059
2022-11-23T06:14:08.846Z,145.30719
2022-11-23T06:19:14.764Z,173.85075
2022-11-23T06:24:17.151Z,152.81356
2022-11-23T06:29:19.265Z,136.5
2022-11-23T06:34:20.959Z,137.71069
2022-11-23T06:39:22.996Z,157.88889
2022-11-23T06:44:25.676Z,216.56637
2022-11-23T06:49:27.327Z,234.56604
2022-11-23T06:54:29.055Z,155.68385
2022-11-23T06:59:31.487Z,127.33333
2022-11-23T07:04:33.249Z,117.52113
2022-11-23T07:09:35.231Z,120.5043
2022-11-23T07:14:37.313Z,152.10811
2022-11-23T07:19:39.699Z,256.69036
2022-11-23T07:24:46.410Z,333.87342
2022-11-23T07:29:48.533Z,425.25
2022-11-23T07:34:50.419Z,393.63504
2022-11-23T07:39:57.243Z,371.77778
2022-11-23T07:44:59.668Z,315.08434
2022-11-23T07:50:01.368Z,226.56881
2022-11-23T07:55:03.230Z,187.47826
2022-11-23T08:00:04.866Z,220.23318
2022-11-23T08:05:09.985Z,235.94313
2022-11-23T08:10:15.044Z,212.99563
2022-11-23T08:15:16.698Z,220.23318
2022-11-23T08:20:18.384Z,209.51724
2022-11-23T08:25:20.155Z,225.27854
2022-11-23T08:30:21.831Z,222.73303
2022-11-23T08:35:23.552Z,187.47826
2022-11-23T08:40:25.974Z,157.88889
2022-11-23T08:45:27.840Z,154.23891
2022-11-23T08:50:29.488Z,133.53846
2022-11-23T08:55:31.561Z,130.66667
2022-11-23T09:00:33.195Z,171.30627
2022-11-23T09:05:34.866Z,159.38462
2022-11-23T09:10:36.569Z,140.80511
2022-11-23T09:15:38.286Z,144
2022-11-23T09:20:40.337Z,145.96721
2022-11-23T09:25:42.185Z,171.30627
2022-11-23T09:30:44.000Z,187.47826
2022-11-23T09:35:45.827Z,205.01695
2022-11-23T09:40:47.852Z,203.91561
2022-11-23T09:45:49.639Z,197.49794
2022-11-23T09:50:55.101Z,241.58454
2022-11-23T09:55:57.090Z,176.45283
2022-11-23T10:00:58.943Z,178.22053
2022-11-23T10:06:00.803Z,171.30627
2022-11-23T10:11:02.877Z,154.9589
2022-11-23T10:16:06.097Z,136.5
2022-11-23T10:21:07.874Z,128.43114
2022-11-23T10:26:09.720Z,150.02007
2022-11-23T10:31:11.865Z,149.33333
2022-11-23T10:36:13.593Z,140.80511
2022-11-23T10:41:15.375Z,152.81356
2022-11-23T10:46:17.118Z,136.5
2022-11-23T10:51:18.853Z,142.07074
2022-11-23T10:56:20.595Z,155.68385
2022-11-23T11:01:22.372Z,182.75969
2022-11-23T11:06:24.039Z,149.33333
2022-11-23T11:11:25.813Z,144
2022-11-23T11:16:27.579Z,135.30435
2022-11-23T11:21:29.331Z,147.30033
2022-11-23T11:26:31.372Z,141.4359
2022-11-23T11:31:33.247Z,126.24852
2022-11-23T11:36:35.020Z,123.06977
2022-11-23T11:41:37.118Z,113.69697
2022-11-23T11:46:38.906Z,129.54217
2022-11-23T11:51:40.627Z,139.55556
2022-11-23T11:56:42.626Z,172.99628
2022-11-23T12:01:44.391Z,229.18519
2022-11-23T12:06:46.066Z,244.4878
2022-11-23T12:11:48.025Z,196.45902
2022-11-23T12:17:10.243Z,168
2022-11-23T12:22:26.864Z,421.51938
2022-11-23T12:27:28.707Z,349.26316
2022-11-23T12:32:30.461Z,190.4
2022-11-23T12:37:32.112Z,166.38267
2022-11-23T12:42:34.019Z,132.95706
2022-11-23T12:47:35.729Z,120
2022-11-23T12:52:37.926Z,118.50425
2022-11-23T12:57:39.837Z,111.3913
2022-11-23T13:02:41.736Z,113.23077
2022-11-23T13:07:47.737Z,346.61438
2022-11-23T13:12:51.107Z,357.42282
2022-11-23T13:17:53.185Z,414.22901
2022-11-23T13:22:54.960Z,553.90099
2022-11-23T13:27:56.748Z,579.05155
2022-11-23T13:32:58.403Z,536.30769
2022-11-23T13:38:00.307Z,421.51938
2022-11-23T13:43:02.381Z,644
2022-11-23T13:48:04.122Z,579.05155
2022-11-23T13:53:05.976Z,536.30769
2022-11-23T13:58:07.704Z,331.42138
2022-11-23T14:03:09.363Z,237.33333
2022-11-23T14:08:11.201Z,244.4878
2022-11-23T14:13:13.336Z,247.44828
2022-11-23T14:18:15.110Z,336.35669
2022-11-23T14:23:16.895Z,211.82609
2022-11-23T14:28:18.900Z,193.39271
2022-11-23T14:33:20.551Z,258.28571
2022-11-23T14:38:22.241Z,231.85047
2022-11-23T14:43:24.039Z,273.41176
2022-11-23T14:48:25.736Z,275.1828
2022-11-23T14:53:27.440Z,227.87097
2022-11-23T14:58:29.181Z,215.36564
2022-11-23T15:03:50.803Z,233.20188
2022-11-23T15:08:52.916Z,269.92593
2022-11-23T15:13:54.673Z,275.1828
2022-11-23T15:18:56.353Z,292.0226
2022-11-23T15:23:58.123Z,252
2022-11-23T15:28:59.856Z,247.44828
2022-11-23T15:34:01.679Z,271.65957
2022-11-23T15:39:03.350Z,266.51309
2022-11-23T15:44:07.488Z,252
2022-11-23T15:49:09.133Z,315.08434
2022-11-23T15:54:10.815Z,315.08434
2022-11-23T15:59:12.706Z,354.66667
2022-11-23T16:04:14.385Z,346.61438
2022-11-23T16:09:49.262Z,237.33333
2022-11-23T16:14:52.843Z,212.99563
2022-11-23T16:19:54.577Z,227.87097
2022-11-23T16:24:56.202Z,245.96078
2022-11-23T16:30:02.810Z,243.02913
2022-11-23T16:35:05.182Z,319.60976
2022-11-23T16:40:06.832Z,440.77419
2022-11-23T16:45:08.614Z,489.13274
2022-11-23T16:50:10.234Z,494
2022-11-23T16:55:11.828Z,466.0339
2022-11-23T17:00:13.741Z,440.77419
2022-11-23T17:05:15.445Z,448.91803
2022-11-23T17:10:17.202Z,429.03937
2022-11-23T17:15:20.541Z,400.2963
2022-11-23T17:20:22.414Z,414.22901
2022-11-23T17:25:24.117Z,396.94118
2022-11-23T17:30:25.851Z,338.87179
2022-11-23T17:35:27.529Z,368.82759
2022-11-23T17:40:29.422Z,470.49573
2022-11-23T17:45:31.407Z,331.42138
2022-11-23T17:50:33.074Z,566.22222
2022-11-23T17:55:34.721Z,644
2022-11-23T18:00:36.333Z,714
2022-11-23T18:05:38.024Z,686.16867
2022-11-23T18:10:39.865Z,660.27907
2022-11-23T18:15:41.553Z,677.33333
2022-11-23T18:20:43.254Z,714
2022-11-23T18:25:45.064Z,863.40299
2022-11-23T18:30:46.865Z,906.5
2022-11-23T18:35:48.830Z,891.69231
2022-11-23T18:40:50.614Z,988.0678
2022-11-23T18:45:52.255Z,906.5
2022-11-23T18:50:54.005Z,1006.06897
2022-11-23T18:56:00.299Z,1064
2022-11-23T19:01:03.344Z,906.5
2022-11-23T19:06:05.136Z,891.69231
2022-11-23T19:11:06.792Z,1044
2022-11-23T19:16:08.689Z,1227.33333
2022-11-23T19:21:10.440Z,1176
2022-11-23T19:26:12.093Z,1006.06897
2022-11-23T19:31:13.934Z,754.52632
2022-11-23T19:36:15.859Z,744
2022-11-23T19:41:17.604Z,937.54839
2022-11-23T19:46:19.347Z,744
2022-11-23T19:51:21.017Z,704.49383
2022-11-23T19:56:22.745Z,754.52632
2022-11-23T20:01:24.490Z,714
2022-11-23T20:06:26.274Z,787.83562
2022-11-23T20:11:27.921Z,836.75362
2022-11-23T20:16:29.660Z,811.60563
2022-11-23T20:21:31.496Z,824
2022-11-23T20:26:33.423Z,824
2022-11-23T20:31:35.135Z,836.75362
2022-11-23T20:36:36.807Z,863.40299
2022-11-23T20:41:38.527Z,988.0678
2022-11-23T20:47:02.787Z,1064
2022-11-23T20:52:05.107Z,1064
2022-11-23T20:57:06.740Z,1044
2022-11-23T21:02:08.360Z,1128.61538
2022-11-23T21:07:10.175Z,953.83607
2022-11-23T21:12:11.865Z,1084.74074
2022-11-23T21:17:13.563Z,877.33333
2022-11-23T21:22:15.180Z,660.27907
2022-11-23T21:27:16.808Z,606.36559
2022-11-23T21:32:18.501Z,921.77778
2022-11-23T21:37:20.174Z,1064
2022-11-23T21:42:21.803Z,1064
2022-11-23T21:47:23.478Z,863.40299
2022-11-23T21:52:25.132Z,988.0678
2022-11-23T21:57:26.756Z,988.0678
2022-11-23T22:02:28.545Z,1106.26415
2022-11-23T22:07:30.288Z,1128.61538
2022-11-23T22:12:31.931Z,1084.74074
2022-11-23T22:17:33.582Z,1064
2022-11-23T22:22:35.199Z,1064
2022-11-23T22:27:36.827Z,988.0678
2022-11-23T22:32:38.450Z,988.0678
2022-11-23T22:37:40.088Z,1064
2022-11-23T22:42:41.738Z,988.0678
2022-11-23T22:47:43.392Z,1044
2022-11-23T22:52:44.996Z,906.5
2022-11-23T22:57:46.628Z,579.05155
2022-11-23T23:02:48.562Z,579.05155
2022-11-23T23:07:50.397Z,525.13208
2022-11-23T23:12:52.212Z,317.33333
2022-11-23T23:17:53.889Z,338.87179
2022-11-23T23:22:56.197Z,215.36564
2022-11-23T23:27:58.020Z,280.61202
2022-11-23T23:32:59.845Z,233.20188
2022-11-23T23:38:01.609Z,280.61202
2022-11-23T23:43:03.305Z,542.05825
2022-11-23T23:48:04.982Z,244.4878
2022-11-23T23:53:06.669Z,212.99563
2022-11-23T23:58:08.298Z,152.81356
